Time;durP1;ratioP1;P1;durP2;ratioP2;P2;SDS_P1;SDS_P2;PMS_P1;PMS_P2;Temp;Humidity;BMP_temperature;BMP_pressure;BME280_temperature;BME280_humidity;BME280_pressure;Samples;Min_cycle;Max_cycle;Signal;HPM_P1;HPM_P2
2022/12/27 00:02:15;;;;;;;12.25;8.57;;;11.10;99.90;;;;;;4952945;29;20039;-83
2022/12/27 00:04:41;;;;;;;10.70;7.95;;;11.10;99.90;;;;;;4990824;28;20030;-83
2022/12/27 00:07:07;;;;;;;8.15;7.13;;;11.10;99.90;;;;;;5013616;28;20478;-83
2022/12/27 00:09:32;;;;;;;9.88;7.40;;;11.10;99.90;;;;;;4995707;28;20083;-83
2022/12/27 00:11:58;;;;;;;8.15;7.18;;;11.10;99.90;;;;;;5013253;28;20025;-83
2022/12/27 00:14:24;;;;;;;8.48;7.45;;;10.90;99.90;;;;;;4995611;28;20113;-82
2022/12/27 00:16:50;;;;;;;9.38;7.43;;;10.80;99.90;;;;;;5013209;28;20036;-83
2022/12/27 00:19:15;;;;;;;9.50;7.38;;;10.70;99.90;;;;;;5012255;28;20057;-83
2022/12/27 00:21:41;;;;;;;7.80;6.93;;;10.70;99.90;;;;;;5012907;28;20406;-83
2022/12/27 00:24:07;;;;;;;7.28;6.30;;;10.60;99.90;;;;;;5013412;28;20033;-83
2022/12/27 00:26:34;;;;;;;9.63;7.00;;;10.60;99.90;;;;;;5013068;28;20089;-83
2022/12/27 00:29:00;;;;;;;6.90;6.20;;;10.50;99.90;;;;;;4995371;28;20053;-83
2022/12/27 00:31:28;;;;;;;6.10;5.50;;;10.30;99.90;;;;;;5013008;28;20022;-83
2022/12/27 00:33:56;;;;;;;5.47;4.97;;;10.30;99.90;;;;;;5019376;28;20060;-82
2022/12/27 00:36:27;;;;;;;8.13;5.13;;;10.10;99.90;;;;;;5032672;28;20025;-83
2022/12/27 00:38:54;;;;;;;6.10;5.10;;;10.00;99.90;;;;;;5032390;28;20036;-83
2022/12/27 00:41:20;;;;;;;5.00;4.35;;;9.90;99.90;;;;;;5032543;28;20031;-83
2022/12/27 00:43:46;;;;;;;5.93;4.15;;;9.90;99.90;;;;;;5032530;28;20117;-82
2022/12/27 00:46:12;;;;;;;5.82;4.25;;;9.90;99.90;;;;;;5032600;28;20430;-83
2022/12/27 00:48:38;;;;;;;5.60;4.68;;;10.00;99.90;;;;;;5031954;28;20026;-83
2022/12/27 00:51:11;;;;;;;6.30;4.65;;;10.10;99.90;;;;;;5032550;28;20028;-83
2022/12/27 00:53:37;;;;;;;6.55;5.18;;;10.20;99.90;;;;;;5032161;28;20116;-83
2022/12/27 00:56:12;;;;;;;6.30;5.50;;;10.30;99.90;;;;;;5032385;28;20049;-83
2022/12/27 00:58:38;;;;;;;5.97;5.38;;;10.40;99.90;;;;;;5032349;28;20072;-83
2022/12/27 01:01:23;;;;;;;9.70;5.80;;;10.50;99.90;;;;;;5032171;28;20029;-83
2022/12/27 01:03:49;;;;;;;7.32;5.57;;;10.50;99.90;;;;;;5031750;28;20128;-84
2022/12/27 01:06:17;;;;;;;8.07;5.60;;;10.40;99.90;;;;;;5032183;28;20108;-83
2022/12/27 01:08:44;;;;;;;6.72;5.53;;;10.50;99.90;;;;;;5032261;28;20026;-83
2022/12/27 01:11:10;;;;;;;6.90;5.22;;;10.50;99.90;;;;;;5031958;28;20025;-83
2022/12/27 01:13:37;;;;;;;9.02;5.57;;;10.50;99.90;;;;;;5032396;28;20029;-83
2022/12/27 01:16:15;;;;;;;6.90;5.70;;;10.60;99.90;;;;;;5014269;28;20466;-82
2022/12/27 01:18:41;;;;;;;6.50;5.50;;;10.60;99.90;;;;;;5031877;28;20118;-83
2022/12/27 01:21:09;;;;;;;6.38;5.70;;;10.60;99.90;;;;;;5031898;28;20053;-83
2022/12/27 01:23:35;;;;;;;6.43;5.53;;;10.70;99.90;;;;;;5031860;28;20091;-83
2022/12/27 01:26:03;;;;;;;8.10;5.68;;;10.60;99.90;;;;;;5032322;28;20440;-83
2022/12/27 01:28:29;;;;;;;8.77;5.70;;;10.70;99.90;;;;;;5031880;28;20026;-82
2022/12/27 01:30:55;;;;;;;7.00;5.68;;;10.70;99.90;;;;;;5034117;28;20024;-82
2022/12/27 01:33:20;;;;;;;7.18;6.30;;;10.60;99.90;;;;;;5035963;28;20578;-83
2022/12/27 01:35:46;;;;;;;8.80;7.00;;;10.60;99.90;;;;;;5035841;28;20036;-83
2022/12/27 01:38:12;;;;;;;12.82;7.10;;;10.60;99.90;;;;;;5035900;28;20116;-82
2022/12/27 01:40:38;;;;;;;11.48;8.38;;;10.70;99.90;;;;;;5035999;28;20628;-83
2022/12/27 01:43:04;;;;;;;10.68;8.95;;;10.60;99.90;;;;;;5035869;28;20040;-83
2022/12/27 01:45:35;;;;;;;9.40;7.40;;;10.60;99.90;;;;;;5035493;28;20096;-83
2022/12/27 01:48:07;;;;;;;9.35;7.50;;;10.60;99.90;;;;;;5035987;28;20022;-83
2022/12/27 01:50:39;;;;;;;9.32;7.30;;;10.60;99.90;;;;;;5035403;28;20485;-83
2022/12/27 01:53:18;;;;;;;9.63;7.45;;;10.70;99.90;;;;;;5035323;28;20026;-82
2022/12/27 01:55:53;;;;;;;9.80;7.10;;;10.70;99.90;;;;;;5035555;28;20112;-83
2022/12/27 01:58:29;;;;;;;9.00;7.45;;;10.70;99.90;;;;;;5035562;28;20045;-83
2022/12/27 02:00:56;;;;;;;12.30;8.85;;;10.50;99.90;;;;;;5034918;28;20035;-83
2022/12/27 02:03:33;;;;;;;10.50;7.35;;;10.40;99.90;;;;;;5035574;28;20041;-83
2022/12/27 02:06:01;;;;;;;11.15;7.38;;;10.30;99.90;;;;;;5035368;28;20026;-82
2022/12/27 02:08:48;;;;;;;10.05;7.95;;;10.20;99.90;;;;;;5035398;28;20386;-83
2022/12/27 02:11:16;;;;;;;10.60;7.90;;;10.20;99.90;;;;;;5035463;28;20113;-83
2022/12/27 02:13:45;;;;;;;9.25;7.80;;;10.20;99.90;;;;;;5035195;28;20077;-82
2022/12/27 02:16:16;;;;;;;10.75;7.50;;;10.30;99.90;;;;;;5035318;28;20044;-83
2022/12/27 02:18:43;;;;;;;10.02;7.45;;;10.40;99.90;;;;;;5035104;28;20038;-82
2022/12/27 02:21:51;;;;;;;9.40;7.38;;;10.30;99.90;;;;;;5035012;28;20087;-82
2022/12/27 02:24:40;;;;;;;9.13;8.00;;;10.20;99.90;;;;;;5034980;28;20033;-82
2022/12/27 02:27:43;;;;;;;9.23;7.78;;;10.40;99.90;;;;;;5034942;28;20036;-83
2022/12/27 02:30:12;;;;;;;10.85;7.25;;;10.30;99.90;;;;;;5034591;28;20034;-83
2022/12/27 02:32:42;;;;;;;9.32;7.32;;;10.40;99.90;;;;;;5035022;28;20030;-82
2022/12/27 02:35:28;;;;;;;10.52;7.75;;;10.20;99.90;;;;;;5034589;28;20104;-83
2022/12/27 02:38:02;;;;;;;10.02;7.25;;;10.20;99.90;;;;;;5034298;28;20034;-82
2022/12/27 02:55:22;;;;;;;8.80;7.38;;;10.30;99.90;;;;;;5033754;28;20493;-83
2022/12/27 02:58:00;;;;;;;8.75;7.25;;;10.40;99.90;;;;;;5034148;28;20071;-83
2022/12/27 03:03:32;;;;;;;9.45;7.30;;;10.40;99.90;;;;;;5034317;28;20088;-82
2022/12/27 03:15:54;;;;;;;9.65;6.97;;;10.40;99.90;;;;;;5034091;28;20091;-83
2022/12/27 03:18:56;;;;;;;10.18;7.07;;;10.30;99.90;;;;;;5033857;28;20079;-83
2022/12/27 03:27:18;;;;;;;7.40;5.90;;;10.00;99.90;;;;;;5033646;28;20113;-82
2022/12/27 03:35:27;;;;;;;8.10;6.57;;;10.00;99.90;;;;;;5033950;28;20381;-83
2022/12/27 03:38:02;;;;;;;7.75;6.47;;;10.00;99.90;;;;;;5033464;28;20040;-83
2022/12/27 03:43:09;;;;;;;9.60;6.72;;;9.90;99.90;;;;;;5033586;28;20052;-82
2022/12/27 03:43:33;;;;;;;7.45;6.32;;;9.90;99.90;;;;;;5033167;28;20064;-82
2022/12/27 03:49:12;;;;;;;9.10;6.82;;;9.70;99.90;;;;;;5033890;28;20507;-83
2022/12/27 03:51:45;;;;;;;10.05;7.38;;;9.70;99.90;;;;;;5033006;28;20047;-83
2022/12/27 03:54:28;;;;;;;10.60;7.45;;;9.60;99.90;;;;;;5015058;28;20176;-83
2022/12/27 03:57:08;;;;;;;11.27;7.72;;;9.60;99.90;;;;;;5033370;28;20029;-83
2022/12/27 03:59:34;;;;;;;10.85;7.35;;;9.60;99.90;;;;;;5033476;28;20108;-83
2022/12/27 04:02:02;;;;;;;8.77;7.00;;;9.70;99.90;;;;;;5033047;28;20041;-83
2022/12/27 04:04:27;;;;;;;10.20;7.20;;;9.80;99.90;;;;;;5033152;28;20371;-83
2022/12/27 04:06:53;;;;;;;10.88;7.28;;;9.80;99.90;;;;;;5033052;28;20032;-82
2022/12/27 04:36:40;;;;;;;8.65;6.88;;;9.40;99.90;;;;;;5032662;28;20056;-83
2022/12/27 04:39:06;;;;;;;8.35;6.45;;;9.20;99.90;;;;;;5032588;28;20477;-82
2022/12/27 04:55:17;;;;;;;8.85;5.70;;;8.80;99.90;;;;;;5032604;28;20032;-83
2022/12/27 04:57:43;;;;;;;9.93;6.07;;;8.70;99.90;;;;;;5032111;28;20033;-82
2022/12/27 05:02:57;;;;;;;6.75;5.32;;;8.50;99.90;;;;;;5032173;28;20039;-83
2022/12/27 05:05:23;;;;;;;7.30;5.05;;;8.50;99.90;;;;;;5032208;28;20112;-83
2022/12/27 05:16:02;;;;;;;6.53;5.53;;;8.30;99.90;;;;;;5032251;28;20080;-83
2022/12/27 05:18:28;;;;;;;6.15;5.32;;;8.30;99.90;;;;;;5031897;28;20057;-83
2022/12/27 05:20:53;;;;;;;7.28;5.53;;;8.20;99.90;;;;;;5032024;28;20014;-83
2022/12/27 05:26:03;;;;;;;8.48;6.00;;;8.00;99.90;;;;;;5032070;28;20024;-83
2022/12/27 05:28:29;;;;;;;9.75;6.10;;;8.00;99.90;;;;;;5031906;28;20029;-82
2022/12/27 05:31:01;;;;;;;10.15;5.82;;;7.90;99.90;;;;;;5014521;28;20057;-83
2022/12/27 05:33:29;;;;;;;9.05;6.20;;;7.80;99.90;;;;;;5031831;28;20367;-83
2022/12/27 05:35:57;;;;;;;6.57;5.68;;;7.90;99.90;;;;;;5031778;28;20033;-83
2022/12/27 05:38:23;;;;;;;9.73;5.82;;;7.90;99.90;;;;;;5031513;28;20030;-83
2022/12/27 05:40:48;;;;;;;8.15;5.88;;;8.00;99.90;;;;;;5031783;28;20352;-83
2022/12/27 05:43:14;;;;;;;9.52;6.85;;;7.80;99.90;;;;;;5031670;28;20041;-83
2022/12/27 05:45:40;;;;;;;8.38;6.10;;;7.90;99.90;;;;;;5031839;28;20109;-83
2022/12/27 05:48:05;;;;;;;8.70;6.57;;;7.70;99.90;;;;;;5031806;28;20030;-83
2022/12/27 05:50:31;;;;;;;8.75;7.07;;;7.60;99.90;;;;;;5031735;28;20017;-83
2022/12/27 05:52:57;;;;;;;10.27;6.57;;;7.70;99.90;;;;;;5031338;28;20489;-83
2022/12/27 05:55:22;;;;;;;9.18;6.50;;;7.60;99.90;;;;;;5031964;28;20022;-83
2022/12/27 05:57:48;;;;;;;8.07;6.70;;;7.60;99.90;;;;;;5031808;28;20120;-83
2022/12/27 06:00:14;;;;;;;12.45;7.32;;;7.70;99.90;;;;;;5031651;28;20033;-82
2022/12/27 06:02:41;;;;;;;12.20;8.00;;;7.70;99.90;;;;;;5031552;28;20037;-83
2022/12/27 06:05:07;;;;;;;14.35;8.75;;;7.70;99.90;;;;;;5031598;28;20108;-83
2022/12/27 06:07:35;;;;;;;11.98;8.35;;;7.70;99.90;;;;;;5031139;28;20040;-83
2022/12/27 06:10:00;;;;;;;12.50;8.52;;;7.70;99.90;;;;;;5031655;28;20061;-83
2022/12/27 06:12:26;;;;;;;10.80;7.72;;;7.70;99.90;;;;;;5013752;28;20076;-82
2022/12/27 06:14:52;;;;;;;10.90;7.15;;;7.60;99.90;;;;;;5031596;28;20030;-83
2022/12/27 06:17:18;;;;;;;8.77;7.25;;;7.50;99.90;;;;;;5034122;28;20041;-83
2022/12/27 06:19:43;;;;;;;11.40;7.45;;;7.40;99.90;;;;;;5035354;28;20037;-83
2022/12/27 06:22:09;;;;;;;9.80;7.22;;;7.70;99.90;;;;;;5034697;28;20117;-82
2022/12/27 06:24:35;;;;;;;10.90;7.07;;;7.60;99.90;;;;;;5034956;28;20053;-82
2022/12/27 06:27:01;;;;;;;11.43;6.90;;;7.60;99.90;;;;;;5034908;28;20076;-83
2022/12/27 06:29:27;;;;;;;9.43;6.90;;;7.70;99.90;;;;;;5035090;28;20470;-82
2022/12/27 06:31:52;;;;;;;9.63;6.72;;;7.50;99.90;;;;;;5034899;28;20034;-83
2022/12/27 06:34:18;;;;;;;12.38;7.40;;;7.60;99.90;;;;;;5034777;28;20056;-83
2022/12/27 06:36:49;;;;;;;11.30;7.65;;;7.50;99.90;;;;;;5034918;28;20482;-83
2022/12/27 06:39:15;;;;;;;8.75;6.93;;;7.40;99.90;;;;;;5034611;28;20029;-82
2022/12/27 06:41:40;;;;;;;8.98;6.72;;;7.60;99.90;;;;;;5034651;28;20071;-83
2022/12/27 06:44:06;;;;;;;11.27;7.43;;;7.50;99.90;;;;;;5034623;28;20367;-82
2022/12/27 06:46:31;;;;;;;12.55;7.93;;;7.40;99.90;;;;;;5034649;28;20021;-82
2022/12/27 06:48:57;;;;;;;10.63;7.80;;;7.30;99.90;;;;;;5035028;28;20036;-83
2022/12/27 06:51:23;;;;;;;12.15;8.38;;;7.20;99.90;;;;;;5034106;28;20044;-83
2022/12/27 06:53:48;;;;;;;15.52;10.20;;;7.10;99.90;;;;;;5034298;28;20055;-82
2022/12/27 06:56:17;;;;;;;14.60;8.60;;;7.10;99.90;;;;;;5034489;28;20086;-82
2022/12/27 06:58:44;;;;;;;11.82;8.93;;;7.30;99.90;;;;;;5034321;28;20100;-82
2022/12/27 07:01:12;;;;;;;9.77;7.30;;;7.00;99.90;;;;;;5034405;28;20367;-83
2022/12/27 07:03:38;;;;;;;9.15;6.63;;;7.20;99.90;;;;;;5034255;28;20065;-82
2022/12/27 07:06:05;;;;;;;10.18;6.35;;;7.00;99.90;;;;;;5034150;28;20508;-83
2022/12/27 07:08:32;;;;;;;9.77;6.60;;;6.90;99.90;;;;;;5034436;28;20479;-82
2022/12/27 07:11:02;;;;;;;9.40;6.80;;;6.90;99.90;;;;;;5034207;28;20474;-83
2022/12/27 07:13:28;;;;;;;9.50;7.05;;;6.90;99.90;;;;;;5034085;28;20021;-83
2022/12/27 07:15:53;;;;;;;10.32;7.10;;;6.80;99.90;;;;;;5033937;28;20025;-82
2022/12/27 07:18:19;;;;;;;10.45;7.18;;;6.90;99.90;;;;;;5033870;28;20045;-83
2022/12/27 07:20:45;;;;;;;7.57;6.05;;;6.80;99.90;;;;;;5033686;28;20053;-83
2022/12/27 07:23:12;;;;;;;8.15;6.55;;;7.20;99.90;;;;;;5033778;28;20040;-83
2022/12/27 07:25:37;;;;;;;11.35;6.40;;;6.80;99.90;;;;;;5016289;28;20060;-83
2022/12/27 07:28:03;;;;;;;11.32;6.70;;;6.70;99.90;;;;;;5032319;28;20030;-84
2022/12/27 07:30:29;;;;;;;9.95;7.50;;;6.60;99.90;;;;;;5033669;28;20427;-84
2022/12/27 07:32:55;;;;;;;10.32;7.15;;;6.50;99.90;;;;;;5033338;28;20060;-84
2022/12/27 07:35:20;;;;;;;8.82;6.65;;;6.40;99.90;;;;;;5033546;28;20529;-84
2022/12/27 07:37:46;;;;;;;8.95;6.65;;;6.50;99.90;;;;;;5033591;28;20056;-84
2022/12/27 07:40:12;;;;;;;9.55;7.00;;;6.60;99.90;;;;;;5033372;28;20068;-84
2022/12/27 07:42:37;;;;;;;8.82;6.88;;;6.80;99.90;;;;;;5033539;28;20565;-84
2022/12/27 07:45:03;;;;;;;10.77;7.75;;;6.80;99.90;;;;;;5033536;28;20022;-84
2022/12/27 07:47:29;;;;;;;12.10;8.35;;;6.90;99.90;;;;;;5033446;28;20045;-84
2022/12/27 07:49:54;;;;;;;9.73;7.30;;;7.00;99.90;;;;;;5033433;28;20536;-84
2022/12/27 07:52:20;;;;;;;10.23;7.93;;;7.80;99.90;;;;;;5032808;28;20025;-84
2022/12/27 07:54:46;;;;;;;10.88;6.88;;;7.70;99.90;;;;;;5033126;28;20061;-84
2022/12/27 07:57:11;;;;;;;8.55;6.60;;;8.00;99.90;;;;;;5033327;28;20029;-83
2022/12/27 07:59:37;;;;;;;7.72;6.45;;;9.60;99.90;;;;;;5033301;28;20025;-84
2022/12/27 08:02:02;;;;;;;8.82;7.15;;;9.90;99.90;;;;;;5033639;28;20048;-84
2022/12/27 08:04:28;;;;;;;8.15;6.47;;;10.10;99.90;;;;;;5032603;28;20036;-84
2022/12/27 08:07:04;;;;;;;7.78;5.75;;;10.40;99.90;;;;;;5032989;28;20033;-84
2022/12/27 08:09:34;;;;;;;6.85;5.18;;;11.40;99.90;;;;;;5033048;28;20025;-84
2022/12/27 08:11:59;;;;;;;5.32;4.80;;;12.00;99.90;;;;;;5033231;28;20083;-85
2022/12/27 08:14:25;;;;;;;5.88;5.13;;;12.00;99.90;;;;;;5014157;28;20025;-84
2022/12/27 08:16:51;;;;;;;10.85;5.60;;;10.90;99.90;;;;;;5028226;28;20117;-86
2022/12/27 08:19:16;;;;;;;4.80;4.28;;;10.40;99.90;;;;;;5032583;28;20087;-88
2022/12/27 08:21:42;;;;;;;8.65;5.43;;;9.30;99.90;;;;;;5032421;28;20033;-86
2022/12/27 08:24:08;;;;;;;8.95;5.30;;;8.80;99.90;;;;;;5033066;28;20037;-87
2022/12/27 08:26:33;;;;;;;6.90;5.28;;;8.40;99.90;;;;;;5028390;28;20084;-86
2022/12/27 08:28:59;;;;;;;6.65;5.63;;;7.70;99.90;;;;;;5022215;28;20505;-87
2022/12/27 08:31:24;;;;;;;7.22;5.40;;;7.60;99.90;;;;;;5031760;28;20101;-86
2022/12/27 08:33:50;;;;;;;7.15;5.72;;;7.60;99.90;;;;;;5023803;28;20383;-86
2022/12/27 08:36:16;;;;;;;8.18;5.25;;;7.70;99.90;;;;;;5032510;28;20083;-88
2022/12/27 08:38:41;;;;;;;7.40;5.65;;;8.20;99.90;;;;;;5033465;28;20018;-87
2022/12/27 08:41:07;;;;;;;7.10;5.00;;;9.90;99.90;;;;;;5032870;28;20395;-88
2022/12/27 08:43:32;;;;;;;8.23;5.68;;;15.10;99.90;;;;;;5032103;28;20048;-86
2022/12/27 08:46:03;;;;;;;8.68;5.45;;;17.70;99.90;;;;;;5032120;28;20112;-85
2022/12/27 08:48:31;;;;;;;7.72;5.40;;;19.70;99.90;;;;;;5032599;28;20037;-86
2022/12/27 08:50:57;;;;;;;6.72;4.88;;;20.50;99.90;;;;;;5029488;28;20393;-87
2022/12/27 08:53:23;;;;;;;7.55;5.65;;;20.40;99.90;;;;;;5022249;28;20033;-85
2022/12/27 08:55:49;;;;;;;7.22;5.22;;;21.50;99.90;;;;;;5019802;28;20529;-85
2022/12/27 08:58:15;;;;;;;8.40;5.97;;;18.50;99.90;;;;;;5013061;28;20424;-84
2022/12/27 09:00:40;;;;;;;10.82;6.15;;;18.60;99.90;;;;;;5031050;28;20025;-85
2022/12/27 09:03:08;;;;;;;7.15;5.25;;;17.50;99.90;;;;;;5032035;28;20045;-87
2022/12/27 09:05:34;;;;;;;7.90;5.72;;;17.30;99.90;;;;;;5028904;28;20471;-85
2022/12/27 09:07:59;;;;;;;8.18;5.22;;;20.20;99.90;;;;;;5012699;28;20389;-85
2022/12/27 09:10:25;;;;;;;6.72;5.57;;;18.90;99.90;;;;;;5021921;28;20025;-85
2022/12/27 09:12:51;;;;;;;7.50;5.25;;;18.20;99.90;;;;;;5031711;28;20116;-87
2022/12/27 09:15:16;;;;;;;6.30;5.60;;;18.50;99.90;;;;;;5031029;28;20437;-84
2022/12/27 09:17:42;;;;;;;7.82;5.72;;;17.70;99.90;;;;;;5031589;28;20057;-85
2022/12/27 09:20:11;;;;;;;5.45;4.90;;;18.50;99.90;;;;;;5031714;28;20033;-86
2022/12/27 09:22:36;;;;;;;7.82;5.80;;;18.80;99.90;;;;;;5031278;28;20095;-88
2022/12/27 09:25:02;;;;;;;9.35;5.90;;;21.10;99.90;;;;;;5032004;28;20022;-87
2022/12/27 09:27:28;;;;;;;7.63;5.72;;;20.60;99.90;;;;;;5032137;28;20088;-88
2022/12/27 09:29:54;;;;;;;6.43;5.65;;;21.50;99.90;;;;;;5014248;28;20026;-87
2022/12/27 09:32:19;;;;;;;6.63;5.70;;;21.60;99.90;;;;;;5025054;28;20038;-88
2022/12/27 09:34:45;;;;;;;8.57;6.05;;;20.00;99.90;;;;;;5030552;28;20079;-87
2022/12/27 09:37:11;;;;;;;5.63;5.03;;;21.00;99.90;;;;;;5014234;28;20025;-85
2022/12/27 09:39:36;;;;;;;6.53;4.72;;;20.70;99.90;;;;;;5031957;28;20394;-88
2022/12/27 09:42:25;;;;;;;5.63;4.60;;;20.70;99.90;;;;;;5032141;28;20293;-88
2022/12/27 09:45:40;;;;;;;6.63;5.18;;;21.20;99.90;;;;;;5032147;28;20028;-89
2022/12/27 09:48:14;;;;;;;6.07;4.80;;;20.80;99.90;;;;;;4962119;28;20502;-85
2022/12/27 09:50:51;;;;;;;5.82;5.03;;;23.40;99.90;;;;;;4970925;28;20601;-85
2022/12/27 09:54:08;;;;;;;7.90;5.15;;;24.00;99.90;;;;;;4971670;28;20026;-85
2022/12/27 09:56:34;;;;;;;6.55;5.20;;;25.00;99.90;;;;;;4971186;28;20039;-88
2022/12/27 09:59:26;;;;;;;5.82;5.20;;;26.10;99.90;;;;;;4974496;28;20396;-86
2022/12/27 10:01:52;;;;;;;6.57;5.25;;;25.90;99.90;;;;;;4956275;28;20036;-86
2022/12/27 10:04:18;;;;;;;6.05;4.50;;;26.50;99.90;;;;;;4968076;28;20038;-90
2022/12/27 10:06:49;;;;;;;6.18;4.88;;;27.50;99.90;;;;;;4955763;29;20054;-89
2022/12/27 10:09:59;;;;;;;5.95;4.90;;;27.60;99.90;;;;;;4965733;28;20039;-90
2022/12/27 10:13:06;;;;;;;5.57;4.75;;;27.20;99.90;;;;;;4911147;29;20051;-90
2022/12/27 10:15:37;;;;;;;6.75;5.25;;;28.60;99.90;;;;;;4897490;29;20512;-87
2022/12/27 10:18:33;;;;;;;5.32;4.70;;;29.20;99.90;;;;;;4916554;29;20070;-89
2022/12/27 10:21:07;;;;;;;5.15;4.53;;;29.60;99.90;;;;;;4910161;29;20594;-85
2022/12/27 10:23:36;;;;;;;5.22;3.70;;;29.60;99.90;;;;;;4935345;29;20098;-85
2022/12/27 10:26:15;;;;;;;6.53;4.30;;;30.00;99.90;;;;;;4935281;29;20055;-83
2022/12/27 10:28:44;;;;;;;7.05;4.57;;;30.60;99.90;;;;;;4934652;29;20031;-84
2022/12/27 10:31:21;;;;;;;5.95;5.18;;;30.70;99.90;;;;;;4935177;29;20023;-83
2022/12/27 10:33:49;;;;;;;6.13;4.78;;;31.50;99.90;;;;;;4935365;29;20106;-83
2022/12/27 10:36:19;;;;;;;6.47;5.13;;;30.60;99.90;;;;;;4936108;29;20139;-86
2022/12/27 10:38:45;;;;;;;6.05;4.20;;;31.40;99.90;;;;;;4936077;29;20067;-86
2022/12/27 10:41:49;;;;;;;5.35;4.68;;;30.90;99.90;;;;;;4918911;29;20040;-90
2022/12/27 10:44:15;;;;;;;7.80;4.97;;;30.80;99.90;;;;;;4879642;29;20057;-89
2022/12/27 10:46:43;;;;;;;5.40;4.45;;;30.90;99.90;;;;;;4879610;29;20134;-88
2022/12/27 10:49:30;;;;;;;7.28;5.40;;;31.20;99.90;;;;;;4911718;29;20047;-88
2022/12/27 10:52:20;;;;;;;6.00;5.47;;;30.50;99.90;;;;;;4934806;29;20486;-83
2022/12/27 10:55:03;;;;;;;7.32;5.90;;;30.40;99.90;;;;;;4922601;29;20038;-86
2022/12/27 10:57:32;;;;;;;7.18;5.60;;;30.40;99.90;;;;;;4931031;29;20136;-93
2022/12/27 11:02:55;;;;;;;7.53;5.32;;;31.50;99.90;;;;;;5052813;23;20057;-89
2022/12/27 11:05:30;;;;;;;5.90;5.32;;;31.40;99.90;;;;;;5053057;28;20090;-89
2022/12/27 11:07:56;;;;;;;5.50;4.88;;;30.90;99.90;;;;;;5054445;28;20036;-89
2022/12/27 11:10:25;;;;;;;5.82;5.22;;;30.90;99.90;;;;;;5056398;28;20016;-94
2022/12/27 11:13:02;;;;;;;5.65;4.75;;;30.20;99.90;;;;;;5054804;28;20544;-95
2022/12/27 11:15:32;;;;;;;5.35;4.85;;;30.10;99.90;;;;;;5054798;28;20036;-93
2022/12/27 11:18:03;;;;;;;5.90;5.30;;;30.30;99.90;;;;;;5056169;28;20033;-83
2022/12/27 11:20:43;;;;;;;6.38;5.57;;;30.50;99.90;;;;;;5054122;28;20079;-82
2022/12/27 11:23:09;;;;;;;5.10;4.53;;;31.60;99.90;;;;;;5056564;28;20083;-93
2022/12/27 11:25:45;;;;;;;5.03;4.53;;;32.00;99.90;;;;;;5055948;28;20025;-96
2022/12/27 11:28:37;;;;;;;5.07;4.57;;;31.40;99.90;;;;;;5058081;28;20032;-95
2022/12/27 11:31:07;;;;;;;5.55;4.68;;;30.70;99.90;;;;;;5043295;28;20033;-82
2022/12/27 11:33:48;;;;;;;6.90;4.80;;;30.80;99.90;;;;;;5043667;28;20059;-87
2022/12/27 11:36:22;;;;;;;5.32;4.78;;;30.30;99.90;;;;;;5034843;28;20114;-88
2022/12/27 11:38:49;;;;;;;7.07;4.45;;;31.20;99.90;;;;;;5069037;28;21305;-89
2022/12/27 11:41:33;;;;;;;6.40;4.55;;;30.50;99.90;;;;;;5051872;28;20119;-84
2022/12/27 11:44:15;;;;;;;6.18;5.40;;;30.50;99.90;;;;;;5053537;28;20049;-90
2022/12/27 11:46:55;;;;;;;5.05;4.57;;;31.00;99.90;;;;;;5052697;28;20079;-84
2022/12/27 11:49:26;;;;;;;7.75;5.30;;;30.60;99.90;;;;;;5051886;28;20031;-81
2022/12/27 11:51:54;;;;;;;6.88;5.05;;;30.60;99.90;;;;;;5053059;28;20053;-82
2022/12/27 11:54:32;;;;;;;7.07;5.18;;;29.80;99.90;;;;;;5051259;28;20123;-83
2022/12/27 11:57:30;;;;;;;5.30;3.88;;;30.00;99.90;;;;;;5052884;28;20025;-82
2022/12/27 12:00:20;;;;;;;5.32;4.82;;;30.10;99.90;;;;;;5052590;28;20055;-81
2022/12/27 12:03:12;;;;;;;6.32;4.72;;;29.00;99.90;;;;;;5053451;28;20110;-88
2022/12/27 12:05:47;;;;;;;5.30;4.28;;;28.20;99.90;;;;;;5054498;28;20043;-89
2022/12/27 12:08:16;;;;;;;5.00;3.10;;;28.40;99.90;;;;;;5052754;28;20041;-89
2022/12/27 12:10:48;;;;;;;4.72;2.85;;;28.50;99.90;;;;;;5052092;28;20079;-89
2022/12/27 12:13:39;;;;;;;5.72;3.60;;;29.10;99.90;;;;;;5053297;28;20025;-85
2022/12/27 12:16:25;;;;;;;4.75;3.63;;;29.30;99.90;;;;;;5053752;28;20471;-89
2022/12/27 12:19:03;;;;;;;4.70;4.05;;;30.20;99.90;;;;;;5035547;28;20571;-90
2022/12/27 12:21:54;;;;;;;4.57;3.95;;;29.90;99.90;;;;;;5033018;28;20362;-89
2022/12/27 12:24:32;;;;;;;4.53;3.90;;;29.90;99.90;;;;;;5040982;28;20076;-89
2022/12/27 12:27:21;;;;;;;4.30;3.80;;;29.10;99.90;;;;;;5033960;28;20595;-91
2022/12/27 12:30:17;;;;;;;5.30;3.92;;;29.10;99.90;;;;;;5034291;28;20033;-92
2022/12/27 12:32:45;;;;;;;4.40;3.85;;;29.60;99.90;;;;;;5033916;28;20030;-91
2022/12/27 12:35:32;;;;;;;4.60;3.60;;;29.40;99.90;;;;;;5050731;28;20022;-91
2022/12/27 12:38:16;;;;;;;4.80;4.30;;;28.80;99.90;;;;;;5054071;28;20079;-91
2022/12/27 12:40:57;;;;;;;4.75;3.80;;;28.40;99.90;;;;;;5054266;28;20024;-91
2022/12/27 12:43:41;;;;;;;4.65;3.10;;;29.10;99.90;;;;;;5053807;28;20033;-92
2022/12/27 12:46:26;;;;;;;3.75;3.20;;;29.10;99.90;;;;;;5054072;28;20132;-92
2022/12/27 12:49:22;;;;;;;6.45;3.90;;;28.20;99.90;;;;;;5053983;28;20040;-92
2022/12/27 12:51:53;;;;;;;7.47;3.15;;;29.30;99.90;;;;;;5054137;28;20025;-91
2022/12/27 12:55:01;;;;;;;4.30;2.55;;;28.50;99.90;;;;;;5052114;28;20436;-92
2022/12/27 12:57:45;;;;;;;4.03;3.63;;;28.40;99.90;;;;;;5012189;28;20447;-91
2022/12/27 13:00:41;;;;;;;3.60;2.80;;;27.40;99.90;;;;;;5011937;28;20029;-92
2022/12/27 13:03:07;;;;;;;6.57;2.72;;;25.70;99.90;;;;;;4995319;28;20538;-92
2022/12/27 13:06:00;;;;;;;3.05;2.35;;;26.60;99.90;;;;;;5011772;28;20112;-92
2022/12/27 13:08:45;;;;;;;2.85;2.40;;;27.80;99.90;;;;;;5012326;28;20068;-91
2022/12/27 13:11:38;;;;;;;3.65;2.53;;;27.40;99.90;;;;;;5011387;28;20108;-93
2022/12/27 13:14:41;;;;;;;4.60;3.10;;;27.50;99.90;;;;;;5012486;28;20034;-91
2022/12/27 13:17:24;;;;;;;7.75;2.78;;;24.00;99.90;;;;;;5012394;28;20022;-91
2022/12/27 13:20:17;;;;;;;3.17;2.42;;;22.00;99.90;;;;;;5012404;28;20030;-91
2022/12/27 13:22:59;;;;;;;3.35;2.20;;;21.10;99.90;;;;;;5012238;28;20212;-92
2022/12/27 13:25:40;;;;;;;3.33;2.45;;;21.30;99.90;;;;;;5012300;28;20029;-91
2022/12/27 13:28:33;;;;;;;4.07;2.20;;;24.00;99.90;;;;;;5035392;28;20029;-92
2022/12/27 13:31:19;;;;;;;2.78;2.15;;;25.90;99.90;;;;;;5057892;28;20040;-91
2022/12/27 13:34:29;;;;;;;3.10;2.05;;;23.40;99.90;;;;;;5058553;28;20127;-92
2022/12/27 13:37:03;;;;;;;2.85;2.10;;;22.80;99.90;;;;;;4980227;28;20049;-93
2022/12/27 13:39:45;;;;;;;3.38;2.10;;;24.20;99.90;;;;;;4979726;28;20034;-92
2022/12/27 13:42:48;;;;;;;4.95;2.25;;;23.80;99.90;;;;;;4996055;28;20030;-91
2022/12/27 13:45:45;;;;;;;4.70;2.00;;;21.90;99.90;;;;;;4995794;28;20026;-91
2022/12/27 13:48:38;;;;;;;2.63;1.70;;;20.50;99.90;;;;;;4996248;28;20548;-92
2022/12/27 13:51:06;;;;;;;3.97;2.33;;;20.30;99.90;;;;;;4995658;28;20038;-92
2022/12/27 13:53:50;;;;;;;2.70;2.35;;;19.60;99.90;;;;;;4996152;28;20153;-93
2022/12/27 13:56:37;;;;;;;3.45;2.17;;;19.40;99.90;;;;;;4996124;28;20039;-92
2022/12/27 13:59:08;;;;;;;3.95;2.58;;;19.00;99.90;;;;;;4995763;28;20494;-91
2022/12/27 14:02:24;;;;;;;4.45;2.70;;;19.10;99.90;;;;;;4995452;28;20117;-92
2022/12/27 14:04:55;;;;;;;3.10;2.47;;;18.90;99.90;;;;;;4937583;29;20044;-91
2022/12/27 14:07:36;;;;;;;5.05;2.30;;;18.70;99.90;;;;;;4937993;29;20299;-91
2022/12/27 14:10:12;;;;;;;5.97;2.72;;;19.00;99.90;;;;;;4937365;29;20070;-92
2022/12/27 14:12:55;;;;;;;3.97;2.10;;;20.30;99.90;;;;;;4958681;28;20101;-92
2022/12/27 14:15:46;;;;;;;5.30;2.08;;;21.00;99.90;;;;;;4976234;28;20043;-92
2022/12/27 14:18:24;;;;;;;5.25;2.42;;;20.40;99.90;;;;;;4918047;29;20040;-92
2022/12/27 14:20:56;;;;;;;3.22;1.67;;;22.10;99.90;;;;;;4918297;29;20184;-91
2022/12/27 14:23:44;;;;;;;2.72;1.60;;;22.60;99.90;;;;;;4918786;29;20127;-92
2022/12/27 14:27:03;;;;;;;5.78;2.15;;;23.30;99.90;;;;;;4918135;29;20032;-92
2022/12/27 14:30:01;;;;;;;5.68;2.00;;;22.40;99.90;;;;;;4880749;29;20045;-91
2022/12/27 14:32:48;;;;;;;5.47;1.92;;;23.00;99.90;;;;;;4881047;29;20077;-92
2022/12/27 14:35:52;;;;;;;2.95;1.92;;;23.00;99.90;;;;;;4881333;29;20048;-91
2022/12/27 14:38:41;;;;;;;6.05;2.55;;;22.50;99.90;;;;;;4842900;29;20041;-92
2022/12/27 14:41:44;;;;;;;4.45;2.22;;;23.10;99.90;;;;;;4857860;29;20129;-91
2022/12/27 14:44:25;;;;;;;2.45;2.00;;;23.00;99.90;;;;;;4862345;29;20090;-91
2022/12/27 14:47:19;;;;;;;4.13;1.83;;;23.10;99.90;;;;;;4862172;29;20060;-92
2022/12/27 14:49:54;;;;;;;3.65;1.60;;;22.50;99.90;;;;;;4824526;29;20568;-92
2022/12/27 14:52:47;;;;;;;2.85;1.70;;;22.30;99.90;;;;;;4826335;29;20087;-92
2022/12/27 14:55:33;;;;;;;3.70;2.05;;;21.80;99.90;;;;;;4843226;29;20082;-92
2022/12/27 14:58:14;;;;;;;3.80;1.73;;;21.40;99.90;;;;;;4843447;29;20041;-90
2022/12/27 15:01:07;;;;;;;3.20;1.17;;;21.40;99.90;;;;;;4827791;29;20061;-92
2022/12/27 15:03:42;;;;;;;2.05;1.33;;;21.40;99.90;;;;;;4855106;29;20050;-91